Marlov Senior — LK6889 — position and weather

sailwx.info

Track history (hours):
 
Tides and Currents Weather Stations Pressure Air Temp Water Temp Dewpoint Dewpoint Depression Visibility Wind Speed Wind Dir Waves Ship Positions

Marlov Senior

Last reported at 2016-Dec-03 04:31 UTC. Time now 2016-Dec-04 08:10 UTC.
Position N 71°03' E 025°54'.

Length 14 m.

Type: Fishing. MMSI: 257074140.

Date/timePositionNaut miles runAvg speedWind from/ knotsBaromVisibWave heightAir tempDewpointWater temp
2016-Dec-03 04:31N 71°03' E 025°54'0 0.0
2016-Dec-03 03:32N 71°03' E 025°54'0 0.0
2016-Dec-03 02:32N 71°03' E 025°54'0 0.0
2016-Dec-03 01:32N 71°03' E 025°54'0 0.0
2016-Dec-03 00:31N 71°03' E 025°54'0 0.0
2016-Dec-02 23:33N 71°03' E 025°54'0 0.0
2016-Dec-02 22:33N 71°03' E 025°54'0 0.0
2016-Dec-02 21:32N 71°03' E 025°54'0 0.0
2016-Dec-02 20:31N 71°03' E 025°54'0 0.0
2016-Dec-02 19:32N 71°03' E 025°54'0 0.0
2016-Dec-02 18:31N 71°03' E 025°54'0 0.0
2016-Dec-02 17:29N 71°03' E 025°54'0 0.0
2016-Dec-02 16:31N 71°03' E 025°54'0 0.0
2016-Dec-02 15:31N 71°03' E 025°54'0 0.0
2016-Dec-02 14:32N 71°03' E 025°54'0 0.0
2016-Dec-02 13:32N 71°03' E 025°54'0 0.0
2016-Dec-02 12:33N 71°03' E 025°54'0 0.0
2016-Dec-02 11:28N 71°03' E 025°54'0 0.0
2016-Dec-02 10:26N 71°03' E 025°54'0 0.0
2016-Dec-02 09:30N 71°03' E 025°54'0 0.0
2016-Dec-02 08:30N 71°03' E 025°54'0 0.0
2016-Dec-02 07:30N 71°03' E 025°54'0 0.0
2016-Dec-02 06:31N 71°03' E 025°54'0 0.0
2016-Dec-02 05:31N 71°03' E 025°54'0 0.0
2016-Dec-02 04:32N 71°03' E 025°54'4 4.2
2016-Dec-02 03:33N 71°06' E 026°02'4 3.6
2016-Dec-02 02:31N 71°10' E 026°02'0 0.3
2016-Dec-02 01:33N 71°10' E 026°01'0 0.4
2016-Dec-02 00:33N 71°10' E 026°00'0 0.3
2016-Dec-01 23:30N 71°10' E 025°59'8 6.6
2016-Dec-01 22:21N 71°03' E 025°54'0 0.5
2016-Dec-01 21:33N 71°03' E 025°54'0 0.4
2016-Dec-01 20:33N 71°03' E 025°54'0 0.0
2016-Dec-01 19:30N 71°03' E 025°54'0 0.0
2016-Dec-01 18:32N 71°03' E 025°54'0 0.0
2016-Dec-01 17:32N 71°03' E 025°54'0 0.0
2016-Dec-01 16:29N 71°03' E 025°54'0 0.0
2016-Dec-01 15:33N 71°03' E 025°54'0 0.0
2016-Dec-01 14:32N 71°03' E 025°54'0 0.0
2016-Dec-01 13:31N 71°03' E 025°54'0 0.0
2016-Dec-01 12:32N 71°03' E 025°54'0 0.0
2016-Dec-01 11:31N 71°03' E 025°54'0 0.0
2016-Dec-01 10:26N 71°03' E 025°54'0 0.0
2016-Dec-01 09:33N 71°03' E 025°54'0 0.0
2016-Dec-01 07:27N 71°03' E 025°54'0 0.0
2016-Dec-01 06:26N 71°03' E 025°54'0 0.0
2016-Dec-01 05:33N 71°03' E 025°54'0 0.0
2016-Dec-01 04:33N 71°03' E 025°54'0 0.0
2016-Dec-01 03:31N 71°03' E 025°54'0 0.0
2016-Dec-01 02:25N 71°03' E 025°54'0 0.0
2016-Dec-01 01:30N 71°03' E 025°54'0 0.0
2016-Dec-01 00:16N 71°03' E 025°54'0 0.0
2016-Nov-30 23:33N 71°03' E 025°54'0 0.0
2016-Nov-30 22:31N 71°03' E 025°54'0 0.0
2016-Nov-30 21:32N 71°03' E 025°54'5 5.3
2016-Nov-30 20:32N 71°07' E 026°03'3 3.2
2016-Nov-30 19:32N 71°10' E 026°01'3 2.9
2016-Nov-30 18:33N 71°07' E 026°03'5 4.7
2016-Nov-30 17:33N 71°03' E 025°56'1 0.9
2016-Nov-30 16:33N 71°03' E 025°54'0 0.0
2016-Nov-30 15:32N 71°03' E 025°54'0 0.0
2016-Nov-30 14:33N 71°03' E 025°54'0 0.0
2016-Nov-30 13:32N 71°03' E 025°54'0 0.0
2016-Nov-30 12:31N 71°03' E 025°54'0 0.0
2016-Nov-30 11:33N 71°03' E 025°54'0 0.0
2016-Nov-30 10:31N 71°03' E 025°54'0 0.0
2016-Nov-30 09:33N 71°03' E 025°54'0 0.0
2016-Nov-30 08:31N 71°03' E 025°54'0 0.0
2016-Nov-30 07:31N 71°03' E 025°54'0 0.0
2016-Nov-30 06:33N 71°03' E 025°54'0 0.0
2016-Nov-30 05:33N 71°03' E 025°54'0 0.0
2016-Nov-30 04:33N 71°03' E 025°54'0 0.0
2016-Nov-30 03:29N 71°03' E 025°54'0 0.0
2016-Nov-30 02:31N 71°03' E 025°54'0 0.0
2016-Nov-30 01:33N 71°03' E 025°54'0 0.0
2016-Nov-30 00:33N 71°03' E 025°54'0 0.0
2016-Nov-29 23:30N 71°03' E 025°54'0 0.0
2016-Nov-29 22:33N 71°03' E 025°54'0 0.0
2016-Nov-29 21:32N 71°03' E 025°54'0 0.0
2016-Nov-29 20:31N 71°03' E 025°54'0 0.0
2016-Nov-29 19:30N 71°03' E 025°54'0 0.0
2016-Nov-29 18:33N 71°03' E 025°54'0 0.0
2016-Nov-29 17:33N 71°03' E 025°54'0 0.0
2016-Nov-29 16:33N 71°03' E 025°54'0 0.0
2016-Nov-29 15:33N 71°03' E 025°54'0 0.0
2016-Nov-29 14:32N 71°03' E 025°54'0 0.0
2016-Nov-29 13:33N 71°03' E 025°54'0 0.0
2016-Nov-29 12:31N 71°03' E 025°54'0 0.0
2016-Nov-29 11:32N 71°03' E 025°54'0 0.0
2016-Nov-29 10:33N 71°03' E 025°54'0 0.0
2016-Nov-29 09:31N 71°03' E 025°54'0 0.0
2016-Nov-29 08:31N 71°03' E 025°54'0 0.0
2016-Nov-29 07:33N 71°03' E 025°54'0 0.0
2016-Nov-29 06:33N 71°03' E 025°54'0 0.0
2016-Nov-29 05:33N 71°03' E 025°54'0 0.0
2016-Nov-29 04:33N 71°03' E 025°54'0 0.0
2016-Nov-29 03:33N 71°03' E 025°54'0 0.0
2016-Nov-29 02:33N 71°03' E 025°54'0 0.0
2016-Nov-29 01:29N 71°03' E 025°54'0 0.0
2016-Nov-29 00:31N 71°03' E 025°54'0 0.0
2016-Nov-28 23:31N 71°03' E 025°54'0 0.0
2016-Nov-28 22:32N 71°03' E 025°54'0 0.0
2016-Nov-28 21:31N 71°03' E 025°54'0 0.0
2016-Nov-28 20:31N 71°03' E 025°54'0 0.0
2016-Nov-28 19:30N 71°03' E 025°54'0 0.0
2016-Nov-28 18:30N 71°03' E 025°54'0 0.0
2016-Nov-28 17:32N 71°03' E 025°54'0 0.0
2016-Nov-28 16:33N 71°03' E 025°54'0 0.0
2016-Nov-28 15:30N 71°03' E 025°54'0 0.0
2016-Nov-28 14:31N 71°03' E 025°54'0 0.0
2016-Nov-28 13:29N 71°03' E 025°54'0 0.0
2016-Nov-28 12:21N 71°03' E 025°54'0 0.0
2016-Nov-28 11:31N 71°03' E 025°54'0 0.0
2016-Nov-28 10:32N 71°03' E 025°54'0 0.0
2016-Nov-28 09:32N 71°03' E 025°54'0 0.0
2016-Nov-28 08:32N 71°03' E 025°54'0 0.0
2016-Nov-28 07:25N 71°03' E 025°54'0 0.0
2016-Nov-28 06:33N 71°03' E 025°54'0 0.0
2016-Nov-28 05:33N 71°03' E 025°54'0 0.0
2016-Nov-28 04:33N 71°03' E 025°54'0 0.0
2016-Nov-28 03:30N 71°03' E 025°54'0 0.0
2016-Nov-28 02:30N 71°03' E 025°54'0 0.0
2016-Nov-28 01:33N 71°03' E 025°54'0 0.0
2016-Nov-28 00:29N 71°03' E 025°54'0 0.0
2016-Nov-27 23:32N 71°03' E 025°54'0 0.0
2016-Nov-27 22:30N 71°03' E 025°54'0 0.0
2016-Nov-27 21:33N 71°03' E 025°54'0 0.0
2016-Nov-27 20:33N 71°03' E 025°54'4 3.2
2016-Nov-27 19:09N 71°06' E 026°02'3 5.0
2016-Nov-27 18:33N 71°09' E 026°03'1 0.6
2016-Nov-27 17:33N 71°10' E 026°03'0 0.5
2016-Nov-27 16:33N 71°10' E 026°01'0 0.3
2016-Nov-27 15:32N 71°10' E 026°01'1 0.6
2016-Nov-27 14:33N 71°10' E 025°59'1 1.1
2016-Nov-27 13:33N 71°09' E 026°01'5 5.4
2016-Nov-27 12:33N 71°04' E 025°57'2 1.6
2016-Nov-27 11:33N 71°03' E 025°54'0 0.0
2016-Nov-27 10:33N 71°03' E 025°54'0 0.0
2016-Nov-27 09:29N 71°03' E 025°54'0 0.0
2016-Nov-27 08:33N 71°03' E 025°54'0 0.0
2016-Nov-27 07:28N 71°03' E 025°54'0 0.0
2016-Nov-27 06:33N 71°03' E 025°54'0 0.0
2016-Nov-27 05:30N 71°03' E 025°54'0 0.0
2016-Nov-27 04:30N 71°03' E 025°54'0 0.0
2016-Nov-27 03:33N 71°03' E 025°54'0 0.0
2016-Nov-27 02:30N 71°03' E 025°54'0 0.0
2016-Nov-27 01:30N 71°03' E 025°54'0 0.0
2016-Nov-27 00:32N 71°03' E 025°54'0 0.0
2016-Nov-26 23:31N 71°03' E 025°54'0 0.0
2016-Nov-26 22:30N 71°03' E 025°54'0 0.0
2016-Nov-26 21:30N 71°03' E 025°54'0 0.0
2016-Nov-26 20:29N 71°03' E 025°54'0 0.0
2016-Nov-26 19:26N 71°03' E 025°54'0 0.0
2016-Nov-26 18:32N 71°03' E 025°54'0 0.0
2016-Nov-26 17:32N 71°03' E 025°54'0 0.0
2016-Nov-26 16:31N 71°03' E 025°54'0 0.0
2016-Nov-26 15:27N 71°03' E 025°54'0 0.0
2016-Nov-26 14:30N 71°03' E 025°54'0 0.0
2016-Nov-26 13:31N 71°03' E 025°54'0 0.0
2016-Nov-26 12:33N 71°03' E 025°54'0 0.0
2016-Nov-26 11:31N 71°03' E 025°54'0 0.0
2016-Nov-26 10:27N 71°03' E 025°54'0 0.0
2016-Nov-26 09:34N 71°03' E 025°54'7 3.6
2016-Nov-26 07:33N 71°09' E 026°03'0 0.4
2016-Nov-26 06:33N 71°10' E 026°03'1 0.6
2016-Nov-26 05:33N 71°10' E 026°01'0 0.4
2016-Nov-26 04:33N 71°10' E 026°02'1 0.7
2016-Nov-26 03:31N 71°10' E 025°60'5 3.9
2016-Nov-26 02:10N 71°05' E 025°59'3 3.9
2016-Nov-26 01:30N 71°03' E 025°54'0 0.0
2016-Nov-26 00:33N 71°03' E 025°54'0 0.0
2016-Nov-25 23:33N 71°03' E 025°54'0 0.0
2016-Nov-25 22:27N 71°03' E 025°54'0 0.0
2016-Nov-25 21:30N 71°03' E 025°54'0 0.0
2016-Nov-25 20:33N 71°03' E 025°54'0 0.0
2016-Nov-25 19:30N 71°03' E 025°54'0 0.0
2016-Nov-25 18:33N 71°03' E 025°54'0 0.0
2016-Nov-25 17:33N 71°03' E 025°54'0 0.0
2016-Nov-25 16:31N 71°03' E 025°54'  
Track history (hours):
 
Tides and Currents Weather Stations Pressure Air Temp Water Temp Dewpoint Dewpoint Depression Visibility Wind Speed Wind Dir Waves Ship Positions

Marlov Senior

Last reported at 2016-Dec-03 04:31 UTC. Time now 2016-Dec-04 08:10 UTC.
Position N 71°03' E 025°54'.

Length 14 m.

Type: Fishing. MMSI: 257074140.

Date/timePositionNaut miles runAvg speedWind from/ knotsBaromVisibWave heightAir tempDewpointWater temp
2016-Dec-03 04:31N 71°03' E 025°54'0 0.0
2016-Dec-03 03:32N 71°03' E 025°54'0 0.0
2016-Dec-03 02:32N 71°03' E 025°54'0 0.0
2016-Dec-03 01:32N 71°03' E 025°54'0 0.0
2016-Dec-03 00:31N 71°03' E 025°54'0 0.0
2016-Dec-02 23:33N 71°03' E 025°54'0 0.0
2016-Dec-02 22:33N 71°03' E 025°54'0 0.0
2016-Dec-02 21:32N 71°03' E 025°54'0 0.0
2016-Dec-02 20:31N 71°03' E 025°54'0 0.0
2016-Dec-02 19:32N 71°03' E 025°54'0 0.0
2016-Dec-02 18:31N 71°03' E 025°54'0 0.0
2016-Dec-02 17:29N 71°03' E 025°54'0 0.0
2016-Dec-02 16:31N 71°03' E 025°54'0 0.0
2016-Dec-02 15:31N 71°03' E 025°54'0 0.0
2016-Dec-02 14:32N 71°03' E 025°54'0 0.0
2016-Dec-02 13:32N 71°03' E 025°54'0 0.0
2016-Dec-02 12:33N 71°03' E 025°54'0 0.0
2016-Dec-02 11:28N 71°03' E 025°54'0 0.0
2016-Dec-02 10:26N 71°03' E 025°54'0 0.0
2016-Dec-02 09:30N 71°03' E 025°54'0 0.0
2016-Dec-02 08:30N 71°03' E 025°54'0 0.0
2016-Dec-02 07:30N 71°03' E 025°54'0 0.0
2016-Dec-02 06:31N 71°03' E 025°54'0 0.0
2016-Dec-02 05:31N 71°03' E 025°54'0 0.0
2016-Dec-02 04:32N 71°03' E 025°54'4 4.2
2016-Dec-02 03:33N 71°06' E 026°02'4 3.6
2016-Dec-02 02:31N 71°10' E 026°02'0 0.3
2016-Dec-02 01:33N 71°10' E 026°01'0 0.4
2016-Dec-02 00:33N 71°10' E 026°00'0 0.3
2016-Dec-01 23:30N 71°10' E 025°59'8 6.6
2016-Dec-01 22:21N 71°03' E 025°54'0 0.5
2016-Dec-01 21:33N 71°03' E 025°54'0 0.4
2016-Dec-01 20:33N 71°03' E 025°54'0 0.0
2016-Dec-01 19:30N 71°03' E 025°54'0 0.0
2016-Dec-01 18:32N 71°03' E 025°54'0 0.0
2016-Dec-01 17:32N 71°03' E 025°54'0 0.0
2016-Dec-01 16:29N 71°03' E 025°54'0 0.0
2016-Dec-01 15:33N 71°03' E 025°54'0 0.0
2016-Dec-01 14:32N 71°03' E 025°54'0 0.0
2016-Dec-01 13:31N 71°03' E 025°54'0 0.0
2016-Dec-01 12:32N 71°03' E 025°54'0 0.0
2016-Dec-01 11:31N 71°03' E 025°54'0 0.0
2016-Dec-01 10:26N 71°03' E 025°54'0 0.0
2016-Dec-01 09:33N 71°03' E 025°54'0 0.0
2016-Dec-01 07:27N 71°03' E 025°54'0 0.0
2016-Dec-01 06:26N 71°03' E 025°54'0 0.0
2016-Dec-01 05:33N 71°03' E 025°54'0 0.0
2016-Dec-01 04:33N 71°03' E 025°54'0 0.0
2016-Dec-01 03:31N 71°03' E 025°54'0 0.0
2016-Dec-01 02:25N 71°03' E 025°54'0 0.0
2016-Dec-01 01:30N 71°03' E 025°54'0 0.0
2016-Dec-01 00:16N 71°03' E 025°54'0 0.0
2016-Nov-30 23:33N 71°03' E 025°54'0 0.0
2016-Nov-30 22:31N 71°03' E 025°54'0 0.0
2016-Nov-30 21:32N 71°03' E 025°54'5 5.3
2016-Nov-30 20:32N 71°07' E 026°03'3 3.2
2016-Nov-30 19:32N 71°10' E 026°01'3 2.9
2016-Nov-30 18:33N 71°07' E 026°03'5 4.7
2016-Nov-30 17:33N 71°03' E 025°56'1 0.9
2016-Nov-30 16:33N 71°03' E 025°54'0 0.0
2016-Nov-30 15:32N 71°03' E 025°54'0 0.0
2016-Nov-30 14:33N 71°03' E 025°54'0 0.0
2016-Nov-30 13:32N 71°03' E 025°54'0 0.0
2016-Nov-30 12:31N 71°03' E 025°54'0 0.0
2016-Nov-30 11:33N 71°03' E 025°54'0 0.0
2016-Nov-30 10:31N 71°03' E 025°54'0 0.0
2016-Nov-30 09:33N 71°03' E 025°54'0 0.0
2016-Nov-30 08:31N 71°03' E 025°54'0 0.0
2016-Nov-30 07:31N 71°03' E 025°54'0 0.0
2016-Nov-30 06:33N 71°03' E 025°54'0 0.0
2016-Nov-30 05:33N 71°03' E 025°54'0 0.0
2016-Nov-30 04:33N 71°03' E 025°54'0 0.0
2016-Nov-30 03:29N 71°03' E 025°54'0 0.0
2016-Nov-30 02:31N 71°03' E 025°54'0 0.0
2016-Nov-30 01:33N 71°03' E 025°54'0 0.0
2016-Nov-30 00:33N 71°03' E 025°54'0 0.0
2016-Nov-29 23:30N 71°03' E 025°54'0 0.0
2016-Nov-29 22:33N 71°03' E 025°54'0 0.0
2016-Nov-29 21:32N 71°03' E 025°54'0 0.0
2016-Nov-29 20:31N 71°03' E 025°54'0 0.0
2016-Nov-29 19:30N 71°03' E 025°54'0 0.0
2016-Nov-29 18:33N 71°03' E 025°54'0 0.0
2016-Nov-29 17:33N 71°03' E 025°54'0 0.0
2016-Nov-29 16:33N 71°03' E 025°54'0 0.0
2016-Nov-29 15:33N 71°03' E 025°54'0 0.0
2016-Nov-29 14:32N 71°03' E 025°54'0 0.0
2016-Nov-29 13:33N 71°03' E 025°54'0 0.0
2016-Nov-29 12:31N 71°03' E 025°54'0 0.0
2016-Nov-29 11:32N 71°03' E 025°54'0 0.0
2016-Nov-29 10:33N 71°03' E 025°54'0 0.0
2016-Nov-29 09:31N 71°03' E 025°54'0 0.0
2016-Nov-29 08:31N 71°03' E 025°54'0 0.0
2016-Nov-29 07:33N 71°03' E 025°54'0 0.0
2016-Nov-29 06:33N 71°03' E 025°54'0 0.0
2016-Nov-29 05:33N 71°03' E 025°54'0 0.0
2016-Nov-29 04:33N 71°03' E 025°54'0 0.0
2016-Nov-29 03:33N 71°03' E 025°54'0 0.0
2016-Nov-29 02:33N 71°03' E 025°54'0 0.0
2016-Nov-29 01:29N 71°03' E 025°54'0 0.0
2016-Nov-29 00:31N 71°03' E 025°54'0 0.0
2016-Nov-28 23:31N 71°03' E 025°54'0 0.0
2016-Nov-28 22:32N 71°03' E 025°54'0 0.0
2016-Nov-28 21:31N 71°03' E 025°54'0 0.0
2016-Nov-28 20:31N 71°03' E 025°54'0 0.0
2016-Nov-28 19:30N 71°03' E 025°54'0 0.0
2016-Nov-28 18:30N 71°03' E 025°54'0 0.0
2016-Nov-28 17:32N 71°03' E 025°54'0 0.0
2016-Nov-28 16:33N 71°03' E 025°54'0 0.0
2016-Nov-28 15:30N 71°03' E 025°54'0 0.0
2016-Nov-28 14:31N 71°03' E 025°54'0 0.0
2016-Nov-28 13:29N 71°03' E 025°54'0 0.0
2016-Nov-28 12:21N 71°03' E 025°54'0 0.0
2016-Nov-28 11:31N 71°03' E 025°54'0 0.0
2016-Nov-28 10:32N 71°03' E 025°54'0 0.0
2016-Nov-28 09:32N 71°03' E 025°54'0 0.0
2016-Nov-28 08:32N 71°03' E 025°54'0 0.0
2016-Nov-28 07:25N 71°03' E 025°54'0 0.0
2016-Nov-28 06:33N 71°03' E 025°54'0 0.0
2016-Nov-28 05:33N 71°03' E 025°54'0 0.0
2016-Nov-28 04:33N 71°03' E 025°54'0 0.0
2016-Nov-28 03:30N 71°03' E 025°54'0 0.0
2016-Nov-28 02:30N 71°03' E 025°54'0 0.0
2016-Nov-28 01:33N 71°03' E 025°54'0 0.0
2016-Nov-28 00:29N 71°03' E 025°54'0 0.0
2016-Nov-27 23:32N 71°03' E 025°54'0 0.0
2016-Nov-27 22:30N 71°03' E 025°54'0 0.0
2016-Nov-27 21:33N 71°03' E 025°54'0 0.0
2016-Nov-27 20:33N 71°03' E 025°54'4 3.2
2016-Nov-27 19:09N 71°06' E 026°02'3 5.0
2016-Nov-27 18:33N 71°09' E 026°03'1 0.6
2016-Nov-27 17:33N 71°10' E 026°03'0 0.5
2016-Nov-27 16:33N 71°10' E 026°01'0 0.3
2016-Nov-27 15:32N 71°10' E 026°01'1 0.6
2016-Nov-27 14:33N 71°10' E 025°59'1 1.1
2016-Nov-27 13:33N 71°09' E 026°01'5 5.4
2016-Nov-27 12:33N 71°04' E 025°57'2 1.6
2016-Nov-27 11:33N 71°03' E 025°54'0 0.0
2016-Nov-27 10:33N 71°03' E 025°54'0 0.0
2016-Nov-27 09:29N 71°03' E 025°54'0 0.0
2016-Nov-27 08:33N 71°03' E 025°54'0 0.0
2016-Nov-27 07:28N 71°03' E 025°54'0 0.0
2016-Nov-27 06:33N 71°03' E 025°54'0 0.0
2016-Nov-27 05:30N 71°03' E 025°54'0 0.0
2016-Nov-27 04:30N 71°03' E 025°54'0 0.0
2016-Nov-27 03:33N 71°03' E 025°54'0 0.0
2016-Nov-27 02:30N 71°03' E 025°54'0 0.0
2016-Nov-27 01:30N 71°03' E 025°54'0 0.0
2016-Nov-27 00:32N 71°03' E 025°54'0 0.0
2016-Nov-26 23:31N 71°03' E 025°54'0 0.0
2016-Nov-26 22:30N 71°03' E 025°54'0 0.0
2016-Nov-26 21:30N 71°03' E 025°54'0 0.0
2016-Nov-26 20:29N 71°03' E 025°54'0 0.0
2016-Nov-26 19:26N 71°03' E 025°54'0 0.0
2016-Nov-26 18:32N 71°03' E 025°54'0 0.0
2016-Nov-26 17:32N 71°03' E 025°54'0 0.0
2016-Nov-26 16:31N 71°03' E 025°54'0 0.0
2016-Nov-26 15:27N 71°03' E 025°54'0 0.0
2016-Nov-26 14:30N 71°03' E 025°54'0 0.0
2016-Nov-26 13:31N 71°03' E 025°54'0 0.0
2016-Nov-26 12:33N 71°03' E 025°54'0 0.0
2016-Nov-26 11:31N 71°03' E 025°54'0 0.0
2016-Nov-26 10:27N 71°03' E 025°54'0 0.0
2016-Nov-26 09:34N 71°03' E 025°54'7 3.6
2016-Nov-26 07:33N 71°09' E 026°03'0 0.4
2016-Nov-26 06:33N 71°10' E 026°03'1 0.6
2016-Nov-26 05:33N 71°10' E 026°01'0 0.4
2016-Nov-26 04:33N 71°10' E 026°02'1 0.7
2016-Nov-26 03:31N 71°10' E 025°60'5 3.9
2016-Nov-26 02:10N 71°05' E 025°59'3 3.9
2016-Nov-26 01:30N 71°03' E 025°54'0 0.0
2016-Nov-26 00:33N 71°03' E 025°54'0 0.0
2016-Nov-25 23:33N 71°03' E 025°54'0 0.0
2016-Nov-25 22:27N 71°03' E 025°54'0 0.0
2016-Nov-25 21:30N 71°03' E 025°54'0 0.0
2016-Nov-25 20:33N 71°03' E 025°54'0 0.0
2016-Nov-25 19:30N 71°03' E 025°54'0 0.0
2016-Nov-25 18:33N 71°03' E 025°54'0 0.0
2016-Nov-25 17:33N 71°03' E 025°54'0 0.0
2016-Nov-25 16:31N 71°03' E 025°54'  

Dump ship's entire track history